Time;durP1;ratioP1;P1;durP2;ratioP2;P2;SDS_P1;SDS_P2;PMS_P1;PMS_P2;Temp;Humidity;BMP_temperature;BMP_pressure;BME280_temperature;BME280_humidity;BME280_pressure;Samples;Min_cycle;Max_cycle;Signal;HPM_P1;HPM_P2
2023/06/21 00:02:24;;;;;;;;;;;20.30;99.90;;;;;;5060800;28;19920;-56
2023/06/21 00:04:50;;;;;;;;;;;20.30;99.90;;;;;;5065690;28;20305;-51
2023/06/21 00:07:15;;;;;;;;;;;20.30;99.90;;;;;;5068662;28;19956;-51
2023/06/21 00:09:41;;;;;;;;;;;20.30;99.90;;;;;;5071329;28;19970;-51
2023/06/21 00:12:07;;;;;;;;;;;20.30;99.90;;;;;;5069696;28;19920;-54
2023/06/21 00:14:32;;;;;;;;;;;20.30;99.90;;;;;;5069132;28;20538;-52
2023/06/21 00:16:58;;;;;;;;;;;20.30;99.90;;;;;;5069630;28;19920;-57
2023/06/21 00:19:23;;;;;;;;;;;20.20;99.90;;;;;;5068088;28;19916;-53
2023/06/21 00:21:49;;;;;;;;;;;20.20;99.90;;;;;;5062240;28;19956;-55
2023/06/21 00:24:14;;;;;;;;;;;20.20;99.90;;;;;;5064473;28;19916;-52
2023/06/21 00:26:39;;;;;;;;;;;20.20;99.90;;;;;;5057024;28;20377;-51
2023/06/21 00:29:05;;;;;;;;;;;20.20;99.90;;;;;;5069579;28;19931;-57
2023/06/21 00:31:30;;;;;;;;;;;20.20;99.90;;;;;;5071058;28;20442;-53
2023/06/21 00:33:56;;;;;;;;;;;20.10;99.90;;;;;;5058096;28;19924;-54
2023/06/21 00:36:21;;;;;;;;;;;20.20;99.90;;;;;;5058331;28;20011;-55
2023/06/21 00:38:47;;;;;;;;;;;20.20;99.90;;;;;;5069968;28;20311;-51
2023/06/21 00:41:12;;;;;;;;;;;20.10;99.90;;;;;;5071497;28;20385;-53
2023/06/21 00:43:38;;;;;;;;;;;20.10;99.90;;;;;;5066067;28;19927;-55
2023/06/21 00:46:04;;;;;;;;;;;20.10;99.90;;;;;;5067503;28;19920;-52
2023/06/21 00:48:29;;;;;;;;;;;20.10;99.90;;;;;;5054761;28;20352;-52
2023/06/21 00:50:55;;;;;;;;;;;20.10;99.90;;;;;;5052178;28;19917;-52
2023/06/21 00:53:21;;;;;;;;;;;20.10;99.90;;;;;;5053115;28;19924;-52
2023/06/21 00:55:47;;;;;;;;;;;20.10;99.90;;;;;;5051450;28;19917;-51
2023/06/21 00:58:13;;;;;;;;;;;20.00;99.90;;;;;;5051598;28;19923;-54
2023/06/21 01:00:39;;;;;;;;;;;20.00;99.90;;;;;;5067055;28;20454;-55
2023/06/21 01:03:04;;;;;;;;;;;19.90;99.90;;;;;;5067272;28;19981;-57
2023/06/21 01:05:34;;;;;;;;;;;19.90;99.90;;;;;;5066938;28;19923;-52
2023/06/21 01:08:32;;;;;;;;;;;19.90;99.90;;;;;;5068612;28;19927;-52
2023/06/21 01:11:06;;;;;;;;;;;19.90;99.90;;;;;;5031106;28;19917;-54
2023/06/21 01:13:57;;;;;;;;;;;19.90;99.90;;;;;;5055575;28;21252;-53
2023/06/21 01:16:25;;;;;;;;;;;19.90;99.90;;;;;;5057357;28;19927;-51
2023/06/21 01:18:52;;;;;;;;;;;19.80;99.90;;;;;;5065028;28;19923;-52
2023/06/21 01:21:22;;;;;;;;;;;19.80;99.90;;;;;;5052302;28;20354;-57
2023/06/21 01:23:51;;;;;;;;;;;19.80;99.90;;;;;;5063478;28;19917;-54
2023/06/21 01:26:35;;;;;;;;;;;19.80;99.90;;;;;;5053119;28;19916;-51
2023/06/21 01:29:33;;;;;;;;;;;19.70;99.90;;;;;;5051457;28;20155;-54
2023/06/21 01:32:00;;;;;;;;;;;19.70;99.90;;;;;;5035277;28;19917;-54
2023/06/21 01:34:27;;;;;;;;;;;19.70;99.90;;;;;;5065588;28;19969;-51
2023/06/21 01:36:53;;;;;;;;;;;19.60;99.90;;;;;;5051036;28;20373;-55
2023/06/21 01:39:18;;;;;;;;;;;19.60;99.90;;;;;;5069527;28;19955;-51
2023/06/21 01:41:44;;;;;;;;;;;19.60;99.90;;;;;;5059054;28;20083;-51
2023/06/21 01:44:09;;;;;;;;;;;19.60;99.90;;;;;;5066280;28;19916;-54
2023/06/21 01:46:35;;;;;;;;;;;19.50;99.90;;;;;;5069670;28;19951;-54
2023/06/21 01:49:03;;;;;;;;;;;19.50;99.90;;;;;;5061318;28;19990;-52
2023/06/21 01:51:29;;;;;;;;;;;19.50;99.90;;;;;;5068208;28;20015;-51
2023/06/21 01:53:55;;;;;;;;;;;19.50;99.90;;;;;;5056163;28;20350;-52
2023/06/21 01:56:21;;;;;;;;;;;19.50;99.90;;;;;;5069806;28;19961;-51
2023/06/21 01:58:48;;;;;;;;;;;19.40;99.90;;;;;;5056585;28;19963;-51
2023/06/21 02:01:15;;;;;;;;;;;19.40;99.90;;;;;;5052151;28;19928;-57
2023/06/21 02:03:43;;;;;;;;;;;19.40;99.90;;;;;;5055526;28;19917;-51
2023/06/21 02:06:11;;;;;;;;;;;19.40;99.90;;;;;;5061730;28;19916;-51
2023/06/21 02:08:37;;;;;;;;;;;19.40;99.90;;;;;;5059947;28;19969;-52
2023/06/21 02:11:03;;;;;;;;;;;19.30;99.90;;;;;;5063635;28;19920;-51
2023/06/21 02:13:28;;;;;;;;;;;19.30;99.90;;;;;;5062743;28;19939;-57
2023/06/21 02:15:54;;;;;;;;;;;19.30;99.90;;;;;;5051300;28;20015;-51
2023/06/21 02:18:23;;;;;;;;;;;19.30;99.90;;;;;;5054711;28;19962;-51
2023/06/21 02:20:49;;;;;;;;;;;19.30;99.90;;;;;;5052925;28;19964;-54
2023/06/21 02:23:15;;;;;;;;;;;19.30;99.90;;;;;;5056351;28;20434;-55
2023/06/21 02:25:40;;;;;;;;;;;19.30;99.90;;;;;;5068729;28;19923;-51
2023/06/21 02:28:06;;;;;;;;;;;19.30;99.90;;;;;;5064901;28;20094;-52
2023/06/21 02:30:32;;;;;;;;;;;19.30;99.90;;;;;;5067589;28;19931;-53
2023/06/21 02:32:58;;;;;;;;;;;19.30;99.90;;;;;;5069378;28;19966;-53
2023/06/21 02:35:23;;;;;;;;;;;19.30;99.90;;;;;;5050035;28;19925;-54
2023/06/21 02:37:49;;;;;;;;;;;19.30;99.90;;;;;;5051344;28;19939;-51
2023/06/21 02:40:14;;;;;;;;;;;19.30;99.90;;;;;;5066716;28;19923;-52
2023/06/21 02:42:40;;;;;;;;;;;19.30;99.90;;;;;;5068771;28;19926;-53
2023/06/21 02:45:06;;;;;;;;;;;19.30;99.90;;;;;;5052887;28;20424;-53
2023/06/21 02:47:32;;;;;;;;;;;19.20;99.90;;;;;;5050935;28;19917;-53
2023/06/21 02:49:57;;;;;;;;;;;19.20;99.90;;;;;;5060608;28;19927;-54
2023/06/21 02:52:23;;;;;;;;;;;19.20;99.90;;;;;;5067018;28;19954;-51
2023/06/21 02:54:48;;;;;;;;;;;19.20;99.90;;;;;;5056137;28;19916;-55
2023/06/21 02:57:14;;;;;;;;;;;19.20;99.90;;;;;;5055575;28;19916;-54
2023/06/21 02:59:39;;;;;;;;;;;19.20;99.90;;;;;;5058366;28;20011;-54
2023/06/21 03:02:05;;;;;;;;;;;19.20;99.90;;;;;;5050522;28;19921;-52
2023/06/21 03:04:31;;;;;;;;;;;19.10;99.90;;;;;;5058020;28;19924;-51
2023/06/21 03:06:56;;;;;;;;;;;19.20;99.90;;;;;;5067187;28;20351;-52
2023/06/21 03:09:23;;;;;;;;;;;19.20;99.90;;;;;;5060245;28;20023;-56
2023/06/21 03:11:48;;;;;;;;;;;19.10;99.90;;;;;;5064734;28;20391;-56
2023/06/21 03:14:14;;;;;;;;;;;19.10;99.90;;;;;;5061543;28;19929;-56
2023/06/21 03:16:40;;;;;;;;;;;19.10;99.90;;;;;;5050193;28;19928;-54
2023/06/21 03:19:05;;;;;;;;;;;19.10;99.90;;;;;;5052550;28;19927;-54
2023/06/21 03:21:31;;;;;;;;;;;19.10;99.90;;;;;;5067931;28;19916;-51
2023/06/21 03:23:56;;;;;;;;;;;19.10;99.90;;;;;;5065240;28;19919;-53
2023/06/21 03:26:22;;;;;;;;;;;19.00;99.90;;;;;;5048777;28;19924;-54
2023/06/21 03:28:47;;;;;;;;;;;19.00;99.90;;;;;;5066157;28;19924;-52
2023/06/21 03:31:13;;;;;;;;;;;19.00;99.90;;;;;;5066505;28;19920;-51
2023/06/21 03:33:38;;;;;;;;;;;19.00;99.90;;;;;;5067766;28;20003;-55
2023/06/21 03:36:04;;;;;;;;;;;19.00;99.90;;;;;;5064582;28;19916;-51
2023/06/21 03:38:30;;;;;;;;;;;19.00;99.90;;;;;;5068096;28;19970;-52
2023/06/21 03:40:55;;;;;;;;;;;19.00;99.90;;;;;;5062811;28;20545;-55
2023/06/21 03:43:21;;;;;;;;;;;18.90;99.90;;;;;;5065852;28;19924;-54
2023/06/21 03:45:46;;;;;;;;;;;18.90;99.90;;;;;;5054579;28;20052;-51
2023/06/21 03:48:12;;;;;;;;;;;18.90;99.90;;;;;;5050589;28;20328;-51
2023/06/21 03:50:38;;;;;;;;;;;18.90;99.90;;;;;;5040677;28;19916;-51
2023/06/21 03:53:03;;;;;;;;;;;18.90;99.90;;;;;;5049930;28;20381;-54
2023/06/21 03:55:29;;;;;;;;;;;18.90;99.90;;;;;;5057526;28;20408;-51
2023/06/21 03:57:54;;;;;;;;;;;18.90;99.90;;;;;;5049867;28;19917;-52
2023/06/21 04:00:20;;;;;;;;;;;18.90;99.90;;;;;;5056184;28;19942;-51
2023/06/21 04:02:46;;;;;;;;;;;18.90;99.90;;;;;;5068265;28;20320;-55
2023/06/21 04:05:11;;;;;;;;;;;18.90;99.90;;;;;;5062043;28;20402;-51
2023/06/21 04:07:40;;;;;;;;;;;18.90;99.90;;;;;;5051349;28;20449;-51
2023/06/21 04:10:06;;;;;;;;;;;18.90;99.90;;;;;;5052928;28;20010;-55
2023/06/21 04:12:32;;;;;;;;;;;18.90;99.90;;;;;;5049622;28;19999;-54
2023/06/21 04:15:00;;;;;;;;;;;18.90;99.90;;;;;;5051030;28;19999;-51
2023/06/21 04:17:27;;;;;;;;;;;18.90;99.90;;;;;;5064293;28;19931;-54
2023/06/21 04:19:54;;;;;;;;;;;18.90;99.90;;;;;;5064821;28;20381;-56
2023/06/21 04:22:21;;;;;;;;;;;18.90;99.90;;;;;;5049563;28;19923;-51
2023/06/21 04:24:46;;;;;;;;;;;19.00;99.90;;;;;;5051945;28;20285;-54
2023/06/21 04:27:12;;;;;;;;;;;18.90;99.90;;;;;;5053310;28;19970;-54
2023/06/21 04:29:40;;;;;;;;;;;18.90;99.90;;;;;;5066532;28;19920;-54
2023/06/21 04:32:06;;;;;;;;;;;18.90;99.90;;;;;;5063011;28;19932;-53
2023/06/21 04:34:33;;;;;;;;;;;19.00;99.90;;;;;;5057960;28;20400;-52
2023/06/21 04:36:58;;;;;;;;;;;18.90;99.90;;;;;;5053608;28;19979;-54
2023/06/21 04:39:24;;;;;;;;;;;18.90;99.90;;;;;;5048237;28;20309;-53
2023/06/21 04:41:52;;;;;;;;;;;18.90;99.90;;;;;;5059802;28;19920;-54
2023/06/21 04:44:17;;;;;;;;;;;18.90;99.90;;;;;;5070261;28;19917;-51
2023/06/21 04:46:46;;;;;;;;;;;18.90;99.90;;;;;;5066628;28;19923;-54
2023/06/21 04:49:11;;;;;;;;;;;18.90;99.90;;;;;;5064265;28;20009;-52
2023/06/21 04:51:37;;;;;;;;;;;18.90;99.90;;;;;;5055213;28;19966;-54
2023/06/21 04:54:02;;;;;;;;;;;18.90;99.90;;;;;;5065479;28;19916;-54
2023/06/21 04:56:31;;;;;;;;;;;19.00;99.90;;;;;;5068800;28;19917;-51
2023/06/21 04:58:56;;;;;;;;;;;19.00;99.90;;;;;;5058524;28;19924;-51
2023/06/21 05:01:22;;;;;;;;;;;19.00;99.90;;;;;;5051809;28;20342;-52
2023/06/21 05:03:52;;;;;;;;;;;19.00;99.90;;;;;;5065239;28;19917;-54
2023/06/21 05:06:20;;;;;;;;;;;19.10;99.90;;;;;;5058821;28;20207;-53
2023/06/21 05:08:45;;;;;;;;;;;19.10;99.90;;;;;;5066917;28;19920;-52
2023/06/21 05:11:11;;;;;;;;;;;19.20;99.90;;;;;;5070425;28;20027;-52
2023/06/21 05:13:36;;;;;;;;;;;19.20;99.90;;;;;;5070030;28;19997;-51
2023/06/21 05:16:02;;;;;;;;;;;19.20;99.90;;;;;;5060513;28;19956;-52
2023/06/21 05:18:27;;;;;;;;;;;19.20;99.90;;;;;;5065931;28;20400;-54
2023/06/21 05:20:53;;;;;;;;;;;19.20;99.90;;;;;;5055066;28;20212;-51
2023/06/21 05:23:18;;;;;;;;;;;19.20;99.90;;;;;;5051342;28;20016;-51
2023/06/21 05:25:44;;;;;;;;;;;19.20;99.90;;;;;;5064642;28;19923;-56
2023/06/21 05:28:09;;;;;;;;;;;19.30;99.90;;;;;;5070250;28;19962;-51
2023/06/21 05:30:35;;;;;;;;;;;19.20;99.90;;;;;;5071597;28;19920;-52
2023/06/21 05:33:00;;;;;;;;;;;19.20;99.90;;;;;;5072425;28;19916;-53
2023/06/21 05:35:26;;;;;;;;;;;19.30;99.90;;;;;;5059950;28;20384;-51
2023/06/21 05:37:53;;;;;;;;;;;19.30;99.90;;;;;;5071294;28;20027;-51
2023/06/21 05:40:19;;;;;;;;;;;19.30;99.90;;;;;;5069488;28;19983;-52
2023/06/21 05:42:45;;;;;;;;;;;19.30;99.90;;;;;;5052267;28;19917;-53
2023/06/21 05:45:11;;;;;;;;;;;19.30;99.90;;;;;;5055665;28;19955;-55
2023/06/21 05:47:36;;;;;;;;;;;19.30;99.90;;;;;;5058675;28;19926;-51
2023/06/21 05:50:02;;;;;;;;;;;19.30;99.90;;;;;;5068407;28;20288;-51
2023/06/21 05:52:28;;;;;;;;;;;19.30;99.90;;;;;;5055873;28;20321;-51
2023/06/21 05:54:54;;;;;;;;;;;19.30;99.90;;;;;;5060466;28;19917;-53
2023/06/21 05:57:20;;;;;;;;;;;19.30;99.90;;;;;;5051233;28;19921;-54
2023/06/21 05:59:45;;;;;;;;;;;19.40;99.90;;;;;;5050731;28;19920;-52
2023/06/21 06:02:11;;;;;;;;;;;19.30;99.90;;;;;;5050991;28;19971;-51
2023/06/21 06:04:37;;;;;;;;;;;19.40;99.90;;;;;;5050597;28;19917;-51
2023/06/21 06:07:03;;;;;;;;;;;19.30;99.90;;;;;;5050789;28;19952;-51
2023/06/21 06:09:28;;;;;;;;;;;19.30;99.90;;;;;;5049793;28;20041;-52
2023/06/21 06:11:55;;;;;;;;;;;19.30;99.90;;;;;;5050397;28;19917;-53
2023/06/21 06:14:21;;;;;;;;;;;19.40;99.90;;;;;;5050616;28;19920;-52
2023/06/21 06:16:46;;;;;;;;;;;19.30;99.90;;;;;;5050987;28;20296;-51
2023/06/21 06:19:11;;;;;;;;;;;19.40;99.90;;;;;;5050379;28;19924;-53
2023/06/21 06:21:37;;;;;;;;;;;19.40;99.90;;;;;;5054843;28;20343;-51
2023/06/21 06:24:03;;;;;;;;;;;19.50;99.90;;;;;;5051822;28;19916;-51
2023/06/21 06:26:28;;;;;;;;;;;19.60;99.90;;;;;;5052832;28;19917;-50
2023/06/21 06:28:54;;;;;;;;;;;19.70;99.90;;;;;;5052037;28;20263;-52
2023/06/21 06:31:21;;;;;;;;;;;19.70;99.90;;;;;;5059689;28;19917;-51
2023/06/21 06:33:46;;;;;;;;;;;19.90;99.90;;;;;;5054010;28;19928;-53
2023/06/21 06:36:12;;;;;;;;;;;19.90;99.90;;;;;;5061710;28;19921;-53
2023/06/21 06:38:38;;;;;;;;;;;20.00;99.90;;;;;;5054923;28;19916;-51
2023/06/21 06:41:04;;;;;;;;;;;20.10;99.90;;;;;;5058034;28;19924;-54
2023/06/21 06:43:29;;;;;;;;;;;20.20;99.90;;;;;;5060698;28;19923;-52
2023/06/21 06:45:55;;;;;;;;;;;20.40;99.90;;;;;;5063413;28;20015;-51
2023/06/21 06:48:20;;;;;;;;;;;20.40;99.90;;;;;;5061692;28;20036;-54
2023/06/21 06:50:46;;;;;;;;;;;20.40;99.90;;;;;;5054700;28;19924;-51
2023/06/21 06:53:11;;;;;;;;;;;20.50;99.90;;;;;;5069057;28;19923;-52
2023/06/21 06:55:37;;;;;;;;;;;20.40;99.90;;;;;;5070236;28;19938;-54
2023/06/21 06:58:02;;;;;;;;;;;20.50;99.90;;;;;;5054832;28;20034;-54
2023/06/21 07:00:28;;;;;;;;;;;20.60;99.90;;;;;;5065202;28;20011;-52
2023/06/21 07:02:56;;;;;;;;;;;20.50;99.90;;;;;;5060231;28;20335;-52
2023/06/21 07:05:22;;;;;;;;;;;20.50;99.90;;;;;;5063451;28;19921;-52
2023/06/21 07:07:48;;;;;;;;;;;20.70;99.90;;;;;;5059400;28;20388;-52
2023/06/21 07:10:13;;;;;;;;;;;20.70;99.90;;;;;;5067540;28;19973;-52
2023/06/21 07:12:39;;;;;;;;;;;20.80;99.90;;;;;;5066809;28;19927;-51
2023/06/21 07:15:05;;;;;;;;;;;20.80;99.90;;;;;;5050878;28;19917;-51
2023/06/21 07:17:30;;;;;;;;;;;20.90;99.90;;;;;;5051442;28;19917;-52
2023/06/21 07:19:56;;;;;;;;;;;20.90;99.90;;;;;;5050115;28;19921;-51
2023/06/21 07:22:22;;;;;;;;;;;21.00;99.90;;;;;;5050588;28;19928;-54
2023/06/21 07:24:47;;;;;;;;;;;21.00;99.90;;;;;;5049641;28;20431;-51
2023/06/21 07:27:13;;;;;;;;;;;21.10;99.90;;;;;;5057249;28;19950;-51
2023/06/21 07:29:38;;;;;;;;;;;21.10;99.90;;;;;;5052732;28;20391;-52
2023/06/21 07:32:04;;;;;;;;;;;21.20;99.90;;;;;;5061757;28;19920;-55
2023/06/21 07:34:30;;;;;;;;;;;21.20;99.90;;;;;;5059826;28;20010;-51
2023/06/21 07:36:55;;;;;;;;;;;21.20;99.90;;;;;;5063138;28;19916;-51
2023/06/21 07:39:21;;;;;;;;;;;21.20;99.90;;;;;;5056646;28;20108;-52
2023/06/21 07:41:46;;;;;;;;;;;21.30;99.90;;;;;;5059014;28;19917;-54
2023/06/21 07:44:12;;;;;;;;;;;21.30;99.90;;;;;;5057585;28;20351;-56
2023/06/21 07:46:37;;;;;;;;;;;21.40;99.90;;;;;;5047364;28;20434;-51
2023/06/21 07:49:03;;;;;;;;;;;21.30;99.90;;;;;;5051082;28;20397;-56
2023/06/21 07:51:28;;;;;;;;;;;21.30;99.90;;;;;;5051734;28;19928;-53
2023/06/21 07:53:54;;;;;;;;;;;21.40;99.90;;;;;;5049436;28;20440;-52
2023/06/21 07:56:19;;;;;;;;;;;21.50;99.90;;;;;;5050057;28;20066;-56
2023/06/21 07:58:46;;;;;;;;;;;21.60;99.90;;;;;;5048821;28;19924;-58
2023/06/21 08:01:12;;;;;;;;;;;21.60;99.90;;;;;;5052432;28;20003;-52
2023/06/21 08:03:38;;;;;;;;;;;21.70;99.90;;;;;;5052475;28;20011;-55
2023/06/21 08:06:04;;;;;;;;;;;21.80;99.90;;;;;;5051115;28;20404;-57
2023/06/21 08:08:29;;;;;;;;;;;21.90;99.90;;;;;;5053346;28;19921;-58
2023/06/21 08:10:56;;;;;;;;;;;21.90;99.90;;;;;;5053204;28;19920;-54
2023/06/21 08:13:22;;;;;;;;;;;21.90;99.90;;;;;;5049971;28;19927;-52
2023/06/21 08:15:48;;;;;;;;;;;22.00;99.90;;;;;;5048105;28;19924;-51
2023/06/21 08:18:14;;;;;;;;;;;22.00;99.90;;;;;;5053309;28;19916;-56
2023/06/21 08:20:40;;;;;;;;;;;22.20;99.90;;;;;;5054154;28;20412;-57
2023/06/21 08:23:09;;;;;;;;;;;22.20;99.90;;;;;;5051471;28;19928;-53
2023/06/21 08:25:35;;;;;;;;;;;22.30;99.90;;;;;;5058412;28;20309;-51
2023/06/21 08:28:01;;;;;;;;;;;22.30;99.90;;;;;;5056106;28;19962;-51
2023/06/21 08:30:27;;;;;;;;;;;22.30;99.90;;;;;;5056262;28;19920;-54
2023/06/21 08:32:53;;;;;;;;;;;22.40;99.90;;;;;;5057555;28;20300;-53
2023/06/21 08:35:18;;;;;;;;;;;22.50;99.90;;;;;;5052437;28;20015;-53
2023/06/21 08:37:56;;;;;;;;;;;22.60;99.90;;;;;;5052465;28;19931;-56
2023/06/21 08:40:24;;;;;;;;;;;22.60;99.90;;;;;;5051780;28;20011;-56
2023/06/21 08:42:49;;;;;;;;;;;22.60;99.90;;;;;;5053173;28;19920;-51
2023/06/21 08:45:15;;;;;;;;;;;22.70;99.90;;;;;;5050936;28;19923;-52
2023/06/21 08:47:41;;;;;;;;;;;22.70;99.90;;;;;;5054443;28;19924;-55
2023/06/21 08:50:07;;;;;;;;;;;22.60;99.90;;;;;;5050187;28;19924;-57
2023/06/21 08:52:33;;;;;;;;;;;22.70;99.90;;;;;;5053292;28;19962;-55
2023/06/21 08:55:03;;;;;;;;;;;22.80;99.90;;;;;;5052223;28;19923;-56
2023/06/21 08:57:31;;;;;;;;;;;22.80;99.90;;;;;;5055743;28;20389;-51
2023/06/21 08:59:59;;;;;;;;;;;22.80;99.90;;;;;;5056535;28;19917;-57
2023/06/21 09:02:30;;;;;;;;;;;22.80;99.90;;;;;;5053188;28;19916;-55
2023/06/21 09:04:58;;;;;;;;;;;22.80;99.90;;;;;;5052509;28;20453;-52
2023/06/21 09:07:23;;;;;;;;;;;22.80;99.90;;;;;;5049217;28;20032;-58
2023/06/21 09:09:51;;;;;;;;;;;22.90;99.90;;;;;;5053792;28;20023;-55
2023/06/21 09:12:17;;;;;;;;;;;22.90;99.90;;;;;;5055147;28;20368;-52
2023/06/21 09:14:43;;;;;;;;;;;23.00;99.90;;;;;;5054299;28;19975;-53
2023/06/21 09:17:08;;;;;;;;;;;23.00;99.90;;;;;;5055114;28;19916;-57
2023/06/21 09:19:35;;;;;;;;;;;23.10;99.90;;;;;;5057753;28;19948;-56
2023/06/21 09:22:01;;;;;;;;;;;23.00;99.90;;;;;;5055154;28;19999;-53
2023/06/21 09:24:26;;;;;;;;;;;23.10;99.90;;;;;;5059876;28;20460;-56
2023/06/21 09:26:52;;;;;;;;;;;23.20;99.90;;;;;;5056206;28;20374;-51
2023/06/21 09:29:18;;;;;;;;;;;23.20;99.90;;;;;;5049619;28;20369;-54
2023/06/21 09:31:43;;;;;;;;;;;23.20;99.90;;;;;;5055801;28;19916;-56
2023/06/21 09:34:09;;;;;;;;;;;23.30;99.90;;;;;;5056321;28;20006;-54
2023/06/21 09:36:34;;;;;;;;;;;23.30;99.90;;;;;;5060928;28;19928;-52
2023/06/21 09:39:07;;;;;;;;;;;23.40;99.90;;;;;;5056757;28;19962;-53
2023/06/21 09:41:33;;;;;;;;;;;23.50;99.90;;;;;;5055548;28;19970;-56
2023/06/21 09:43:58;;;;;;;;;;;23.60;99.90;;;;;;5053672;28;19916;-53
2023/06/21 09:46:24;;;;;;;;;;;23.60;99.90;;;;;;5055590;28;19916;-53
2023/06/21 09:48:49;;;;;;;;;;;23.70;99.90;;;;;;5054588;28;19971;-55
2023/06/21 09:51:16;;;;;;;;;;;23.70;99.90;;;;;;5052416;28;19923;-54
2023/06/21 09:53:43;;;;;;;;;;;23.90;99.90;;;;;;5052924;28;20985;-54
2023/06/21 09:56:08;;;;;;;;;;;23.90;99.90;;;;;;5055389;28;20285;-51
2023/06/21 09:58:37;;;;;;;;;;;24.00;99.90;;;;;;5059097;28;20835;-54
2023/06/21 10:01:06;;;;;;;;;;;24.10;99.90;;;;;;5057465;28;19916;-55
2023/06/21 10:03:33;;;;;;;;;;;24.20;99.90;;;;;;5057543;28;19920;-53
2023/06/21 10:05:59;;;;;;;;;;;24.30;99.90;;;;;;5036499;28;19961;-56
2023/06/21 10:08:28;;;;;;;;;;;24.30;99.90;;;;;;5049800;28;19927;-56
2023/06/21 10:10:54;;;;;;;;;;;24.30;99.90;;;;;;5060998;28;19923;-56
2023/06/21 10:13:24;;;;;;;;;;;24.30;99.90;;;;;;5053511;28;21505;-51
2023/06/21 10:15:49;;;;;;;;;;;24.40;99.90;;;;;;5056996;28;19917;-52
2023/06/21 10:18:16;;;;;;;;;;;24.40;99.90;;;;;;5055095;28;20652;-53
2023/06/21 10:20:42;;;;;;;;;;;24.40;99.90;;;;;;5063294;28;19920;-54
2023/06/21 10:23:08;;;;;;;;;;;24.40;99.90;;;;;;5054466;28;19970;-53
2023/06/21 10:25:34;;;;;;;;;;;24.50;99.90;;;;;;5062493;28;19923;-54
2023/06/21 10:28:01;;;;;;;;;;;24.50;99.90;;;;;;5057939;28;19965;-54
2023/06/21 10:30:27;;;;;;;;;;;24.60;99.90;;;;;;5052493;28;19921;-51
2023/06/21 10:32:54;;;;;;;;;;;24.70;99.90;;;;;;5061853;28;19923;-55
2023/06/21 10:35:21;;;;;;;;;;;24.70;99.90;;;;;;5059610;28;19920;-53
2023/06/21 10:37:58;;;;;;;;;;;24.80;99.90;;;;;;5041065;28;19927;-51
2023/06/21 10:40:24;;;;;;;;;;;24.80;99.90;;;;;;5052098;28;20301;-56
2023/06/21 10:42:51;;;;;;;;;;;24.90;99.40;;;;;;5060330;28;19917;-56
2023/06/21 10:45:16;;;;;;;;;;;24.90;99.20;;;;;;5056260;28;19970;-53
2023/06/21 10:47:43;;;;;;;;;;;24.90;99.80;;;;;;5058631;28;19999;-51
2023/06/21 10:50:09;;;;;;;;;;;24.90;99.90;;;;;;5050725;28;19920;-58
2023/06/21 10:52:35;;;;;;;;;;;25.10;99.90;;;;;;5054312;28;19927;-53
2023/06/21 10:55:02;;;;;;;;;;;25.20;99.90;;;;;;5053781;28;19917;-52
2023/06/21 10:57:28;;;;;;;;;;;25.20;99.90;;;;;;5058340;28;19916;-58
2023/06/21 11:00:04;;;;;;;;;;;25.30;99.10;;;;;;5058632;28;19925;-57
2023/06/21 11:02:30;;;;;;;;;;;25.40;99.00;;;;;;5053853;28;19960;-51
2023/06/21 11:05:14;;;;;;;;;;;25.30;98.50;;;;;;5054780;28;20366;-53
2023/06/21 11:07:50;;;;;;;;;;;25.20;98.00;;;;;;5059893;28;20007;-55
2023/06/21 11:10:16;;;;;;;;;;;25.20;98.80;;;;;;5051615;28;19924;-51
2023/06/21 11:12:42;;;;;;;;;;;25.20;99.00;;;;;;5057613;28;19982;-52
2023/06/21 11:15:08;;;;;;;;;;;25.20;99.10;;;;;;5047341;28;19917;-54
2023/06/21 11:17:34;;;;;;;;;;;25.30;99.10;;;;;;5061004;28;19947;-53
2023/06/21 11:20:17;;;;;;;;;;;25.40;99.10;;;;;;5054050;28;19920;-58
2023/06/21 11:22:53;;;;;;;;;;;25.50;98.70;;;;;;5064500;28;19973;-51
2023/06/21 11:25:19;;;;;;;;;;;25.40;97.90;;;;;;5052198;28;20008;-53
2023/06/21 11:28:04;;;;;;;;;;;25.40;98.20;;;;;;5051821;28;20180;-54
2023/06/21 11:30:31;;;;;;;;;;;25.40;96.80;;;;;;5054811;28;19926;-53
2023/06/21 11:32:57;;;;;;;;;;;25.40;96.30;;;;;;5053171;28;19942;-55
2023/06/21 11:35:35;;;;;;;;;;;25.40;97.30;;;;;;5048645;28;19924;-55
2023/06/21 11:38:01;;;;;;;;;;;25.50;97.90;;;;;;5054361;28;20277;-57
2023/06/21 11:40:27;;;;;;;;;;;25.60;97.20;;;;;;5049451;28;20389;-54
2023/06/21 11:42:53;;;;;;;;;;;25.60;96.90;;;;;;5051290;28;19932;-57
2023/06/21 11:45:23;;;;;;;;;;;25.50;97.30;;;;;;5053325;28;20326;-53
2023/06/21 11:47:59;;;;;;;;;;;25.50;96.40;;;;;;5049786;28;19996;-52
2023/06/21 11:50:34;;;;;;;;;;;25.50;96.60;;;;;;5048763;28;20076;-53
2023/06/21 11:53:28;;;;;;;;;;;25.50;96.00;;;;;;5052066;28;20017;-58
2023/06/21 11:55:54;;;;;;;;;;;25.40;95.70;;;;;;5051974;28;19973;-55
2023/06/21 11:58:20;;;;;;;;;;;25.30;95.50;;;;;;5051191;28;20101;-56
2023/06/21 12:00:46;;;;;;;;;;;25.20;96.20;;;;;;5047956;28;20224;-54
2023/06/21 12:03:12;;;;;;;;;;;25.10;96.50;;;;;;5047572;28;19920;-54
2023/06/21 12:05:54;;;;;;;;;;;25.10;96.60;;;;;;5048062;28;19917;-56
2023/06/21 12:08:21;;;;;;;;;;;25.10;96.20;;;;;;5049019;28;20293;-53
2023/06/21 12:10:47;;;;;;;;;;;25.00;95.70;;;;;;5051807;28;20315;-55
2023/06/21 12:13:14;;;;;;;;;;;25.00;96.10;;;;;;5051610;28;19921;-60
2023/06/21 12:15:47;;;;;;;;;;;25.00;96.00;;;;;;5052430;28;19916;-53
2023/06/21 12:18:14;;;;;;;;;;;24.90;96.30;;;;;;5048553;28;19928;-54
2023/06/21 12:20:40;;;;;;;;;;;24.90;95.50;;;;;;5051598;28;19966;-59
2023/06/21 12:23:08;;;;;;;;;;;24.90;95.40;;;;;;5050189;28;19975;-56
2023/06/21 12:25:43;;;;;;;;;;;25.00;96.00;;;;;;5048544;28;19982;-55
2023/06/21 12:28:09;;;;;;;;;;;25.20;95.30;;;;;;5053773;28;19916;-58
2023/06/21 12:30:45;;;;;;;;;;;25.30;95.90;;;;;;5050844;28;20008;-56
2023/06/21 12:33:10;;;;;;;;;;;25.40;95.10;;;;;;5046388;28;19916;-55
2023/06/21 12:35:37;;;;;;;;;;;25.50;94.90;;;;;;5061688;28;19981;-56
2023/06/21 12:38:15;;;;;;;;;;;25.50;94.10;;;;;;5053147;28;19923;-57
2023/06/21 12:40:54;;;;;;;;;;;25.50;94.30;;;;;;5065014;28;19924;-55
2023/06/21 12:43:41;;;;;;;;;;;25.60;95.70;;;;;;5057682;28;19920;-55
2023/06/21 12:46:07;;;;;;;;;;;25.70;94.40;;;;;;5063452;28;19920;-53
2023/06/21 12:48:33;;;;;;;;;;;25.80;94.40;;;;;;5051678;28;19917;-57
2023/06/21 12:50:59;;;;;;;;;;;25.90;92.80;;;;;;5055485;28;20385;-54
2023/06/21 12:53:25;;;;;;;;;;;25.80;93.30;;;;;;5046722;28;19921;-56
2023/06/21 12:55:51;;;;;;;;;;;25.80;93.70;;;;;;5060159;28;20380;-52
2023/06/21 12:58:19;;;;;;;;;;;25.70;92.60;;;;;;5055367;28;19916;-56
2023/06/21 13:00:45;;;;;;;;;;;25.70;92.00;;;;;;5061441;28;20095;-54
2023/06/21 13:03:10;;;;;;;;;;;25.70;92.40;;;;;;5051296;28;20015;-56
2023/06/21 13:05:36;;;;;;;;;;;25.70;92.30;;;;;;5067279;28;19920;-58
2023/06/21 13:08:07;;;;;;;;;;;25.80;93.80;;;;;;5067613;28;19969;-55
2023/06/21 13:10:33;;;;;;;;;;;25.90;92.60;;;;;;5038985;28;20377;-54
2023/06/21 13:12:58;;;;;;;;;;;26.10;91.50;;;;;;5049430;28;19935;-53
2023/06/21 13:15:24;;;;;;;;;;;26.10;91.80;;;;;;5051783;28;19970;-54
2023/06/21 13:17:49;;;;;;;;;;;26.10;91.60;;;;;;5054229;28;19920;-57
2023/06/21 13:20:16;;;;;;;;;;;26.00;91.70;;;;;;5065115;28;19917;-51
2023/06/21 13:22:42;;;;;;;;;;;25.90;91.20;;;;;;5057324;28;19925;-51
2023/06/21 13:25:07;;;;;;;;;;;25.80;92.10;;;;;;5056986;28;20002;-51
2023/06/21 13:27:34;;;;;;;;;;;25.80;92.30;;;;;;5053693;28;19947;-54
2023/06/21 13:30:02;;;;;;;;;;;25.70;92.30;;;;;;5053412;28;19928;-57
2023/06/21 13:32:28;;;;;;;;;;;25.60;92.90;;;;;;5056050;28;19920;-51
2023/06/21 13:34:53;;;;;;;;;;;25.60;93.00;;;;;;5053248;28;19971;-54
2023/06/21 13:37:19;;;;;;;;;;;25.50;92.40;;;;;;5057175;28;19977;-52
2023/06/21 13:39:44;;;;;;;;;;;25.50;91.10;;;;;;5050352;28;19921;-59
2023/06/21 13:42:10;;;;;;;;;;;25.40;92.00;;;;;;5057060;28;19977;-52
2023/06/21 13:44:35;;;;;;;;;;;25.40;91.70;;;;;;5052491;28;20055;-55
2023/06/21 13:47:01;;;;;;;;;;;25.40;91.80;;;;;;5055500;28;20302;-52
2023/06/21 13:49:26;;;;;;;;;;;25.40;91.90;;;;;;5051905;28;19925;-51
2023/06/21 13:51:52;;;;;;;;;;;25.40;92.10;;;;;;5052205;28;19931;-55
2023/06/21 13:54:17;;;;;;;;;;;25.40;92.50;;;;;;5051250;28;19916;-57
2023/06/21 13:56:43;;;;;;;;;;;25.50;92.80;;;;;;5049451;28;20278;-51
2023/06/21 13:59:08;;;;;;;;;;;25.70;92.50;;;;;;5047385;28;19971;-54
2023/06/21 14:01:35;;;;;;;;;;;25.80;92.80;;;;;;5053240;28;19920;-52
2023/06/21 14:04:03;;;;;;;;;;;25.90;92.40;;;;;;5051326;28;20304;-52
2023/06/21 14:06:29;;;;;;;;;;;26.00;92.20;;;;;;5052832;28;20243;-58
2023/06/21 14:08:55;;;;;;;;;;;26.10;92.00;;;;;;5052110;28;19921;-54
2023/06/21 14:11:20;;;;;;;;;;;26.10;91.40;;;;;;5054483;28;20425;-52
2023/06/21 14:13:46;;;;;;;;;;;26.10;92.70;;;;;;5054104;28;19956;-54
2023/06/21 14:16:11;;;;;;;;;;;26.20;91.60;;;;;;5049713;28;20019;-57